Tiline, Kentucky
Current Conditions -  °F | °C
As of 4:55 AM on Wednesday 22 Oct 2014 (Local Time) from K5M9 Reporting Station
Clear Clear  
Wind Chill: 39°   Ceiling: Unl
Heat Index: 42°   Visibility: 10mi
Dew Point: 41°   Wind: 5mph
Humidity: 95%   Direction: 50°NE
Pressure: 30.21"   Gusts: NA
Location:  37.17°N, 88.24°W
Report Text: K5M9 220955Z AUTO 05004KT 10SM CLR 06/05 A3021 RMK AO2 T00570049
Loading
Personal Weather Stations






























Interactive Weather Map
Tropical Storm Tracking
New forecast layout! Learn more

10-Day Weather Forecast

Advertisements
Track Severe Weather on mobile